createdAt,value
2022-11-19T00:01:42.505Z,-1.98
2022-11-19T00:03:56.283Z,-2.03
2022-11-19T00:06:11.361Z,-1.95
2022-11-19T00:08:21.012Z,-1.97
2022-11-19T00:10:27.494Z,-2.05
2022-11-19T00:12:45.704Z,-2.06
2022-11-19T00:14:51.366Z,-1.98
2022-11-19T00:16:58.025Z,-1.98
2022-11-19T00:19:03.835Z,-2.07
2022-11-19T00:21:16.501Z,-1.98
2022-11-19T00:23:22.980Z,-1.91
2022-11-19T00:25:31.648Z,-1.94
2022-11-19T00:27:37.431Z,-1.94
2022-11-19T00:29:43.934Z,-1.92
2022-11-19T00:31:49.558Z,-2.06
2022-11-19T00:33:55.307Z,-2.02
2022-11-19T00:36:03.484Z,-2.08
2022-11-19T00:38:11.865Z,-2.05
2022-11-19T00:40:17.662Z,-2.17
2022-11-19T00:42:24.693Z,-2.24
2022-11-19T00:44:30.344Z,-2.16
2022-11-19T00:46:39.790Z,-2.19
2022-11-19T00:48:47.791Z,-2.19
2022-11-19T00:50:55.458Z,-2.09
2022-11-19T00:53:01.169Z,-1.95
2022-11-19T00:55:12.318Z,-1.94
2022-11-19T00:57:18.001Z,-1.94
2022-11-19T00:59:23.689Z,-1.91
2022-11-19T01:01:44.982Z,-1.88
2022-11-19T01:03:52.154Z,-1.83
2022-11-19T01:05:58.462Z,-1.81
2022-11-19T01:08:05.086Z,-1.87
2022-11-19T01:10:16.283Z,-1.89
2022-11-19T01:12:22.028Z,-1.87
2022-11-19T01:14:28.575Z,-1.79
2022-11-19T01:16:43.765Z,-1.88
2022-11-19T01:18:52.218Z,-1.90
2022-11-19T01:20:59.023Z,-2.06
2022-11-19T01:23:04.767Z,-1.98
2022-11-19T01:25:16.891Z,-1.95
2022-11-19T01:27:23.413Z,-2.12
2022-11-19T01:29:29.311Z,-2.07
2022-11-19T01:31:35.012Z,-2.02
2022-11-19T01:33:41.757Z,-2.20
2022-11-19T01:35:47.506Z,-2.13
2022-11-19T01:37:56.334Z,-2.17
2022-11-19T01:40:02.829Z,-2.20
2022-11-19T01:42:40.055Z,-2.19
2022-11-19T01:45:09.674Z,-2.11
2022-11-19T01:47:16.617Z,-2.26
2022-11-19T01:49:24.235Z,-2.12
2022-11-19T01:51:39.614Z,-2.07
2022-11-19T01:54:04.787Z,-2.08
2022-11-19T01:56:20.699Z,-2.19
2022-11-19T01:58:29.685Z,-2.38
2022-11-19T02:00:37.153Z,-2.22
2022-11-19T02:02:42.940Z,-2.21
